Terminal Aerodrome Forecast
Issued by NWS Shreveport, LA

Home | Current Version | Previous Version | Text Only | Print | Product List | Glossary On
Versions: 1 2 3 4 5 6 7 8 9 10 11 12 13 14 15
000
FTUS44 KSHV 291819 AAA
TAFTXK
TAF AMD
KTXK 291819Z 2918/3018 06005KT P6SM VCTS SCT035CB BKN045 BKN050
     FM300100 06003KT P6SM SCT250
     FM300900 06003KT 4SM BR SCT250
     FM301400 06006KT P6SM SCT250=

USA.gov is the U.S. government's official web portal to all federal, state and local government web resources and services.